sensor_id;sensor_type;location;lat;lon;timestamp;temperature;humidity
36434;DHT22;31691;51.972;5.672;2022-07-10T00:00:12;22.40;83.70
36434;DHT22;31691;51.972;5.672;2022-07-10T00:05:15;22.30;83.40
36434;DHT22;31691;51.972;5.672;2022-07-10T00:10:21;22.20;83.90
36434;DHT22;31691;51.972;5.672;2022-07-10T00:15:24;22.10;83.80
36434;DHT22;31691;51.972;5.672;2022-07-10T00:20:27;22.10;84.00
36434;DHT22;31691;51.972;5.672;2022-07-10T00:25:29;21.80;84.60
36434;DHT22;31691;51.972;5.672;2022-07-10T00:30:32;21.80;84.90
36434;DHT22;31691;51.972;5.672;2022-07-10T00:35:35;21.70;84.90
36434;DHT22;31691;51.972;5.672;2022-07-10T00:40:37;21.70;85.00
36434;DHT22;31691;51.972;5.672;2022-07-10T00:45:39;21.60;84.80
36434;DHT22;31691;51.972;5.672;2022-07-10T00:50:42;21.60;85.10
36434;DHT22;31691;51.972;5.672;2022-07-10T00:55:44;21.50;85.20
36434;DHT22;31691;51.972;5.672;2022-07-10T01:00:47;21.40;85.40
36434;DHT22;31691;51.972;5.672;2022-07-10T01:05:49;21.40;86.10
36434;DHT22;31691;51.972;5.672;2022-07-10T01:10:51;21.40;86.30
36434;DHT22;31691;51.972;5.672;2022-07-10T01:15:54;21.40;85.80
36434;DHT22;31691;51.972;5.672;2022-07-10T01:20:56;21.50;85.50
36434;DHT22;31691;51.972;5.672;2022-07-10T01:25:58;21.60;85.70
36434;DHT22;31691;51.972;5.672;2022-07-10T01:31:02;21.50;85.80
36434;DHT22;31691;51.972;5.672;2022-07-10T01:36:05;21.60;85.50
36434;DHT22;31691;51.972;5.672;2022-07-10T01:41:07;21.70;85.30
36434;DHT22;31691;51.972;5.672;2022-07-10T01:46:11;21.60;85.40
36434;DHT22;31691;51.972;5.672;2022-07-10T01:51:14;21.60;85.60
36434;DHT22;31691;51.972;5.672;2022-07-10T01:56:17;21.60;85.20
36434;DHT22;31691;51.972;5.672;2022-07-10T02:01:19;21.50;85.60
36434;DHT22;31691;51.972;5.672;2022-07-10T02:06:21;21.50;86.30
36434;DHT22;31691;51.972;5.672;2022-07-10T02:11:24;21.40;86.60
36434;DHT22;31691;51.972;5.672;2022-07-10T02:16:26;21.30;87.10
36434;DHT22;31691;51.972;5.672;2022-07-10T02:21:28;21.30;87.10
36434;DHT22;31691;51.972;5.672;2022-07-10T02:26:31;21.40;87.20
36434;DHT22;31691;51.972;5.672;2022-07-10T02:31:33;21.50;86.90
36434;DHT22;31691;51.972;5.672;2022-07-10T02:36:39;21.50;86.70
36434;DHT22;31691;51.972;5.672;2022-07-10T02:41:41;21.50;86.80
36434;DHT22;31691;51.972;5.672;2022-07-10T02:46:43;21.50;86.90
36434;DHT22;31691;51.972;5.672;2022-07-10T02:51:46;21.40;87.40
36434;DHT22;31691;51.972;5.672;2022-07-10T02:56:48;21.50;86.50
36434;DHT22;31691;51.972;5.672;2022-07-10T03:01:50;21.50;86.70
36434;DHT22;31691;51.972;5.672;2022-07-10T03:06:52;21.50;86.80
36434;DHT22;31691;51.972;5.672;2022-07-10T03:11:55;21.50;87.20
36434;DHT22;31691;51.972;5.672;2022-07-10T03:16:57;21.60;87.10
36434;DHT22;31691;51.972;5.672;2022-07-10T03:21:59;21.60;86.80
36434;DHT22;31691;51.972;5.672;2022-07-10T03:27:01;21.60;86.90
36434;DHT22;31691;51.972;5.672;2022-07-10T03:32:04;21.70;87.10
36434;DHT22;31691;51.972;5.672;2022-07-10T03:37:06;21.50;87.90
36434;DHT22;31691;51.972;5.672;2022-07-10T03:42:09;21.50;88.30
36434;DHT22;31691;51.972;5.672;2022-07-10T03:47:11;21.40;88.50
36434;DHT22;31691;51.972;5.672;2022-07-10T03:52:13;21.40;88.50
36434;DHT22;31691;51.972;5.672;2022-07-10T03:57:15;21.40;88.70
36434;DHT22;31691;51.972;5.672;2022-07-10T04:02:37;21.40;88.40
36434;DHT22;31691;51.972;5.672;2022-07-10T04:07:40;21.30;89.00
36434;DHT22;31691;51.972;5.672;2022-07-10T04:12:43;21.40;88.40
36434;DHT22;31691;51.972;5.672;2022-07-10T04:17:45;21.50;88.30
36434;DHT22;31691;51.972;5.672;2022-07-10T04:22:48;21.70;88.10
36434;DHT22;31691;51.972;5.672;2022-07-10T04:27:50;21.80;87.90
36434;DHT22;31691;51.972;5.672;2022-07-10T04:32:52;21.80;87.60
36434;DHT22;31691;51.972;5.672;2022-07-10T04:37:54;21.80;87.50
36434;DHT22;31691;51.972;5.672;2022-07-10T04:42:56;21.80;88.10
36434;DHT22;31691;51.972;5.672;2022-07-10T04:47:59;21.70;88.30
36434;DHT22;31691;51.972;5.672;2022-07-10T04:53:01;21.70;88.50
36434;DHT22;31691;51.972;5.672;2022-07-10T04:58:04;21.80;88.60
36434;DHT22;31691;51.972;5.672;2022-07-10T05:03:06;21.90;88.90
36434;DHT22;31691;51.972;5.672;2022-07-10T05:08:09;22.10;88.30
36434;DHT22;31691;51.972;5.672;2022-07-10T05:13:11;22.20;88.30
36434;DHT22;31691;51.972;5.672;2022-07-10T05:18:14;22.60;87.50
36434;DHT22;31691;51.972;5.672;2022-07-10T05:23:16;22.80;87.00
36434;DHT22;31691;51.972;5.672;2022-07-10T05:28:18;22.90;86.70
36434;DHT22;31691;51.972;5.672;2022-07-10T05:33:20;22.80;86.40
36434;DHT22;31691;51.972;5.672;2022-07-10T05:38:23;22.70;87.20
36434;DHT22;31691;51.972;5.672;2022-07-10T05:43:25;22.70;87.40
36434;DHT22;31691;51.972;5.672;2022-07-10T05:48:27;22.50;88.20
36434;DHT22;31691;51.972;5.672;2022-07-10T05:53:29;22.50;88.20
36434;DHT22;31691;51.972;5.672;2022-07-10T05:58:32;22.50;88.10
36434;DHT22;31691;51.972;5.672;2022-07-10T06:03:34;22.30;89.00
36434;DHT22;31691;51.972;5.672;2022-07-10T06:08:37;22.50;88.90
36434;DHT22;31691;51.972;5.672;2022-07-10T06:13:40;22.70;88.20
36434;DHT22;31691;51.972;5.672;2022-07-10T06:18:42;22.60;88.60
36434;DHT22;31691;51.972;5.672;2022-07-10T06:23:45;22.70;89.00
36434;DHT22;31691;51.972;5.672;2022-07-10T06:28:48;22.80;88.70
36434;DHT22;31691;51.972;5.672;2022-07-10T06:33:50;22.90;88.30
36434;DHT22;31691;51.972;5.672;2022-07-10T06:38:52;22.90;88.70
36434;DHT22;31691;51.972;5.672;2022-07-10T06:43:54;22.90;88.80
36434;DHT22;31691;51.972;5.672;2022-07-10T06:48:57;22.50;89.90
36434;DHT22;31691;51.972;5.672;2022-07-10T06:54:00;22.20;90.70
36434;DHT22;31691;51.972;5.672;2022-07-10T06:59:02;22.20;90.80
36434;DHT22;31691;51.972;5.672;2022-07-10T07:04:04;22.20;90.50
36434;DHT22;31691;51.972;5.672;2022-07-10T07:09:06;22.00;91.00
36434;DHT22;31691;51.972;5.672;2022-07-10T07:14:09;22.30;90.70
36434;DHT22;31691;51.972;5.672;2022-07-10T07:19:11;22.50;90.80
36434;DHT22;31691;51.972;5.672;2022-07-10T07:24:19;22.90;90.10
36434;DHT22;31691;51.972;5.672;2022-07-10T07:29:21;23.00;89.80
36434;DHT22;31691;51.972;5.672;2022-07-10T07:34:23;22.90;89.80
36434;DHT22;31691;51.972;5.672;2022-07-10T07:39:25;22.90;90.10
36434;DHT22;31691;51.972;5.672;2022-07-10T07:44:27;23.00;90.00
36434;DHT22;31691;51.972;5.672;2022-07-10T07:49:31;22.80;90.10
36434;DHT22;31691;51.972;5.672;2022-07-10T07:54:33;22.50;90.30
36434;DHT22;31691;51.972;5.672;2022-07-10T07:59:35;22.90;90.00
36434;DHT22;31691;51.972;5.672;2022-07-10T08:04:37;23.20;89.50
36434;DHT22;31691;51.972;5.672;2022-07-10T08:09:39;23.60;88.30
36434;DHT22;31691;51.972;5.672;2022-07-10T08:14:41;23.50;89.10
36434;DHT22;31691;51.972;5.672;2022-07-10T08:19:43;23.80;87.50
36434;DHT22;31691;51.972;5.672;2022-07-10T08:24:45;23.80;87.60
36434;DHT22;31691;51.972;5.672;2022-07-10T08:29:48;23.70;87.70
36434;DHT22;31691;51.972;5.672;2022-07-10T08:34:50;23.60;87.80
36434;DHT22;31691;51.972;5.672;2022-07-10T08:39:52;23.60;87.50
36434;DHT22;31691;51.972;5.672;2022-07-10T08:44:54;23.50;88.20
36434;DHT22;31691;51.972;5.672;2022-07-10T08:49:57;23.40;88.70
36434;DHT22;31691;51.972;5.672;2022-07-10T08:54:59;23.70;88.10
36434;DHT22;31691;51.972;5.672;2022-07-10T09:00:01;24.30;86.50
36434;DHT22;31691;51.972;5.672;2022-07-10T09:05:04;24.40;86.00
36434;DHT22;31691;51.972;5.672;2022-07-10T09:10:10;24.60;86.20
36434;DHT22;31691;51.972;5.672;2022-07-10T09:15:17;25.10;84.50
36434;DHT22;31691;51.972;5.672;2022-07-10T09:20:30;25.80;84.10
36434;DHT22;31691;51.972;5.672;2022-07-10T09:25:33;26.70;81.80
36434;DHT22;31691;51.972;5.672;2022-07-10T09:30:38;26.80;80.00
36434;DHT22;31691;51.972;5.672;2022-07-10T09:46:35;26.60;80.20
36434;DHT22;31691;51.972;5.672;2022-07-10T09:51:40;26.50;81.60
36434;DHT22;31691;51.972;5.672;2022-07-10T09:56:50;27.00;80.50
36434;DHT22;31691;51.972;5.672;2022-07-10T10:01:53;26.90;79.40
36434;DHT22;31691;51.972;5.672;2022-07-10T10:06:58;26.90;80.00
36434;DHT22;31691;51.972;5.672;2022-07-10T10:12:09;27.20;79.50
36434;DHT22;31691;51.972;5.672;2022-07-10T10:17:16;27.50;77.80
36434;DHT22;31691;51.972;5.672;2022-07-10T10:22:21;27.70;77.40
36434;DHT22;31691;51.972;5.672;2022-07-10T10:27:24;27.80;77.60
36434;DHT22;31691;51.972;5.672;2022-07-10T10:32:27;27.80;77.80
36434;DHT22;31691;51.972;5.672;2022-07-10T10:37:38;28.40;76.60
36434;DHT22;31691;51.972;5.672;2022-07-10T10:42:43;28.60;75.40
36434;DHT22;31691;51.972;5.672;2022-07-10T10:53:26;28.40;75.30
36434;DHT22;31691;51.972;5.672;2022-07-10T10:58:36;27.80;77.90
36434;DHT22;31691;51.972;5.672;2022-07-10T11:14:39;28.00;77.30
36434;DHT22;31691;51.972;5.672;2022-07-10T11:19:41;29.20;73.50
36434;DHT22;31691;51.972;5.672;2022-07-10T11:30:02;28.80;75.00
36434;DHT22;31691;51.972;5.672;2022-07-10T11:35:10;27.60;77.80
36434;DHT22;31691;51.972;5.672;2022-07-10T11:40:13;26.90;78.70
36434;DHT22;31691;51.972;5.672;2022-07-10T11:45:33;26.60;80.50
36434;DHT22;31691;51.972;5.672;2022-07-10T11:50:38;26.70;80.30
36434;DHT22;31691;51.972;5.672;2022-07-10T11:55:41;27.00;79.60
36434;DHT22;31691;51.972;5.672;2022-07-10T12:00:43;27.00;78.30
36434;DHT22;31691;51.972;5.672;2022-07-10T12:05:47;26.80;79.90
36434;DHT22;31691;51.972;5.672;2022-07-10T12:10:51;27.00;80.40
36434;DHT22;31691;51.972;5.672;2022-07-10T12:15:53;27.30;78.90
36434;DHT22;31691;51.972;5.672;2022-07-10T12:20:55;27.40;79.60
36434;DHT22;31691;51.972;5.672;2022-07-10T12:25:58;27.90;78.20
36434;DHT22;31691;51.972;5.672;2022-07-10T12:31:00;28.20;76.40
36434;DHT22;31691;51.972;5.672;2022-07-10T12:36:02;28.20;76.20
36434;DHT22;31691;51.972;5.672;2022-07-10T12:41:12;28.40;78.20
36434;DHT22;31691;51.972;5.672;2022-07-10T12:51:28;28.90;74.40
36434;DHT22;31691;51.972;5.672;2022-07-10T12:56:56;28.90;74.20
36434;DHT22;31691;51.972;5.672;2022-07-10T13:01:59;29.20;72.80
36434;DHT22;31691;51.972;5.672;2022-07-10T13:07:15;29.10;74.40
36434;DHT22;31691;51.972;5.672;2022-07-10T13:12:17;29.10;73.90
36434;DHT22;31691;51.972;5.672;2022-07-10T13:17:20;29.10;72.50
36434;DHT22;31691;51.972;5.672;2022-07-10T13:22:22;28.80;72.90
36434;DHT22;31691;51.972;5.672;2022-07-10T13:27:24;28.80;73.30
36434;DHT22;31691;51.972;5.672;2022-07-10T13:32:26;29.60;72.90
36434;DHT22;31691;51.972;5.672;2022-07-10T13:37:31;30.20;69.90
36434;DHT22;31691;51.972;5.672;2022-07-10T13:42:33;30.00;71.50
36434;DHT22;31691;51.972;5.672;2022-07-10T13:47:36;30.10;69.00
36434;DHT22;31691;51.972;5.672;2022-07-10T13:52:38;29.90;70.40
36434;DHT22;31691;51.972;5.672;2022-07-10T13:57:40;29.90;69.70
36434;DHT22;31691;51.972;5.672;2022-07-10T14:02:43;30.00;69.50
36434;DHT22;31691;51.972;5.672;2022-07-10T14:07:45;29.80;69.90
36434;DHT22;31691;51.972;5.672;2022-07-10T14:12:47;29.80;70.80
36434;DHT22;31691;51.972;5.672;2022-07-10T14:17:50;29.50;70.00
36434;DHT22;31691;51.972;5.672;2022-07-10T14:22:53;29.50;71.70
36434;DHT22;31691;51.972;5.672;2022-07-10T14:27:56;29.60;70.20
36434;DHT22;31691;51.972;5.672;2022-07-10T14:32:58;29.40;71.80
36434;DHT22;31691;51.972;5.672;2022-07-10T14:38:01;29.50;72.30
36434;DHT22;31691;51.972;5.672;2022-07-10T14:43:03;29.40;70.90
36434;DHT22;31691;51.972;5.672;2022-07-10T14:48:05;29.60;70.80
36434;DHT22;31691;51.972;5.672;2022-07-10T14:53:08;29.80;70.40
36434;DHT22;31691;51.972;5.672;2022-07-10T14:58:10;29.90;71.00
36434;DHT22;31691;51.972;5.672;2022-07-10T15:03:13;30.00;70.70
36434;DHT22;31691;51.972;5.672;2022-07-10T15:08:15;29.90;70.50
36434;DHT22;31691;51.972;5.672;2022-07-10T15:13:21;29.90;71.10
36434;DHT22;31691;51.972;5.672;2022-07-10T15:18:23;29.70;70.70
36434;DHT22;31691;51.972;5.672;2022-07-10T15:23:26;29.50;71.90
36434;DHT22;31691;51.972;5.672;2022-07-10T15:28:30;29.80;72.00
36434;DHT22;31691;51.972;5.672;2022-07-10T15:33:33;30.20;71.20
36434;DHT22;31691;51.972;5.672;2022-07-10T15:38:35;29.80;72.10
36434;DHT22;31691;51.972;5.672;2022-07-10T15:43:37;29.50;73.00
36434;DHT22;31691;51.972;5.672;2022-07-10T15:48:41;29.90;72.80
36434;DHT22;31691;51.972;5.672;2022-07-10T15:53:43;29.50;72.80
36434;DHT22;31691;51.972;5.672;2022-07-10T15:58:46;29.30;74.20
36434;DHT22;31691;51.972;5.672;2022-07-10T16:03:48;29.10;74.40
36434;DHT22;31691;51.972;5.672;2022-07-10T16:08:50;29.30;73.90
36434;DHT22;31691;51.972;5.672;2022-07-10T16:13:53;29.10;74.40
36434;DHT22;31691;51.972;5.672;2022-07-10T16:18:55;29.00;75.80
36434;DHT22;31691;51.972;5.672;2022-07-10T16:23:59;29.20;75.30
36434;DHT22;31691;51.972;5.672;2022-07-10T16:29:03;29.30;74.70
36434;DHT22;31691;51.972;5.672;2022-07-10T16:34:05;29.30;75.70
36434;DHT22;31691;51.972;5.672;2022-07-10T16:39:08;29.00;75.60
36434;DHT22;31691;51.972;5.672;2022-07-10T16:44:17;29.20;75.60
36434;DHT22;31691;51.972;5.672;2022-07-10T16:49:19;29.30;75.00
36434;DHT22;31691;51.972;5.672;2022-07-10T16:54:21;29.60;74.00
36434;DHT22;31691;51.972;5.672;2022-07-10T16:59:24;29.80;73.80
36434;DHT22;31691;51.972;5.672;2022-07-10T17:04:26;29.60;74.30
36434;DHT22;31691;51.972;5.672;2022-07-10T17:09:44;29.50;74.80
36434;DHT22;31691;51.972;5.672;2022-07-10T17:14:46;29.10;75.70
36434;DHT22;31691;51.972;5.672;2022-07-10T17:19:48;28.80;75.50
36434;DHT22;31691;51.972;5.672;2022-07-10T17:24:52;28.30;76.30
36434;DHT22;31691;51.972;5.672;2022-07-10T17:29:55;28.10;76.70
36434;DHT22;31691;51.972;5.672;2022-07-10T17:34:57;28.40;77.60
36434;DHT22;31691;51.972;5.672;2022-07-10T17:40:00;28.70;75.90
36434;DHT22;31691;51.972;5.672;2022-07-10T17:45:02;28.70;74.90
36434;DHT22;31691;51.972;5.672;2022-07-10T17:50:06;28.90;74.60
36434;DHT22;31691;51.972;5.672;2022-07-10T17:55:09;29.30;73.90
36434;DHT22;31691;51.972;5.672;2022-07-10T18:00:12;29.80;74.00
36434;DHT22;31691;51.972;5.672;2022-07-10T18:05:14;30.20;72.70
36434;DHT22;31691;51.972;5.672;2022-07-10T18:10:17;30.80;72.80
36434;DHT22;31691;51.972;5.672;2022-07-10T18:15:19;31.30;70.00
36434;DHT22;31691;51.972;5.672;2022-07-10T18:20:21;31.10;70.90
36434;DHT22;31691;51.972;5.672;2022-07-10T18:25:23;31.00;70.60
36434;DHT22;31691;51.972;5.672;2022-07-10T18:30:25;30.50;71.20
36434;DHT22;31691;51.972;5.672;2022-07-10T18:35:28;30.30;71.40
36434;DHT22;31691;51.972;5.672;2022-07-10T18:40:33;30.30;71.40
36434;DHT22;31691;51.972;5.672;2022-07-10T18:45:36;30.10;72.10
36434;DHT22;31691;51.972;5.672;2022-07-10T18:50:38;30.60;72.00
36434;DHT22;31691;51.972;5.672;2022-07-10T18:55:40;30.80;71.10
36434;DHT22;31691;51.972;5.672;2022-07-10T19:00:48;30.90;70.80
36434;DHT22;31691;51.972;5.672;2022-07-10T19:05:51;30.30;71.70
36434;DHT22;31691;51.972;5.672;2022-07-10T19:10:53;29.30;74.10
36434;DHT22;31691;51.972;5.672;2022-07-10T19:15:55;28.50;76.00
36434;DHT22;31691;51.972;5.672;2022-07-10T19:20:58;27.90;77.80
36434;DHT22;31691;51.972;5.672;2022-07-10T19:26:00;27.40;78.80
36434;DHT22;31691;51.972;5.672;2022-07-10T19:31:03;26.90;79.70
36434;DHT22;31691;51.972;5.672;2022-07-10T19:36:08;26.70;80.80
36434;DHT22;31691;51.972;5.672;2022-07-10T19:41:10;26.60;80.90
36434;DHT22;31691;51.972;5.672;2022-07-10T19:46:14;26.40;81.80
36434;DHT22;31691;51.972;5.672;2022-07-10T19:51:16;26.10;82.80
36434;DHT22;31691;51.972;5.672;2022-07-10T19:56:20;25.70;83.30
36434;DHT22;31691;51.972;5.672;2022-07-10T20:01:22;25.60;84.00
36434;DHT22;31691;51.972;5.672;2022-07-10T20:06:25;25.80;83.80
36434;DHT22;31691;51.972;5.672;2022-07-10T20:11:27;25.80;84.30
36434;DHT22;31691;51.972;5.672;2022-07-10T20:16:29;25.80;84.40
36434;DHT22;31691;51.972;5.672;2022-07-10T20:21:32;25.50;85.30
36434;DHT22;31691;51.972;5.672;2022-07-10T20:26:34;25.30;86.40
36434;DHT22;31691;51.972;5.672;2022-07-10T20:31:36;25.10;87.60
36434;DHT22;31691;51.972;5.672;2022-07-10T20:36:39;25.10;87.40
36434;DHT22;31691;51.972;5.672;2022-07-10T20:42:02;24.90;87.90
36434;DHT22;31691;51.972;5.672;2022-07-10T20:47:04;24.80;88.60
36434;DHT22;31691;51.972;5.672;2022-07-10T20:52:07;24.90;88.90
36434;DHT22;31691;51.972;5.672;2022-07-10T20:57:09;24.70;89.20
36434;DHT22;31691;51.972;5.672;2022-07-10T21:02:11;24.60;90.00
36434;DHT22;31691;51.972;5.672;2022-07-10T21:07:18;24.50;90.10
36434;DHT22;31691;51.972;5.672;2022-07-10T21:12:26;24.50;90.30
36434;DHT22;31691;51.972;5.672;2022-07-10T21:17:29;24.50;90.30
36434;DHT22;31691;51.972;5.672;2022-07-10T21:22:32;24.50;90.60
36434;DHT22;31691;51.972;5.672;2022-07-10T21:27:35;24.40;90.80
36434;DHT22;31691;51.972;5.672;2022-07-10T21:32:37;24.20;91.00
36434;DHT22;31691;51.972;5.672;2022-07-10T21:37:39;24.10;91.30
36434;DHT22;31691;51.972;5.672;2022-07-10T21:42:42;24.20;91.30
36434;DHT22;31691;51.972;5.672;2022-07-10T21:47:44;24.30;91.50
36434;DHT22;31691;51.972;5.672;2022-07-10T21:52:46;24.30;91.50
36434;DHT22;31691;51.972;5.672;2022-07-10T21:57:48;24.30;91.70
36434;DHT22;31691;51.972;5.672;2022-07-10T22:02:51;24.30;91.70
36434;DHT22;31691;51.972;5.672;2022-07-10T22:07:54;24.20;92.00
36434;DHT22;31691;51.972;5.672;2022-07-10T22:12:56;24.20;92.00
36434;DHT22;31691;51.972;5.672;2022-07-10T22:17:58;24.30;92.10
36434;DHT22;31691;51.972;5.672;2022-07-10T22:23:01;24.30;92.20
36434;DHT22;31691;51.972;5.672;2022-07-10T22:28:03;24.20;92.10
36434;DHT22;31691;51.972;5.672;2022-07-10T22:33:05;24.20;92.20
36434;DHT22;31691;51.972;5.672;2022-07-10T22:38:07;24.30;92.20
36434;DHT22;31691;51.972;5.672;2022-07-10T22:43:09;24.50;92.10
36434;DHT22;31691;51.972;5.672;2022-07-10T22:48:12;24.60;91.70
36434;DHT22;31691;51.972;5.672;2022-07-10T22:53:14;24.80;91.60
36434;DHT22;31691;51.972;5.672;2022-07-10T22:58:16;24.90;91.40
36434;DHT22;31691;51.972;5.672;2022-07-10T23:03:19;24.90;91.30
36434;DHT22;31691;51.972;5.672;2022-07-10T23:08:21;24.70;91.30
36434;DHT22;31691;51.972;5.672;2022-07-10T23:13:24;24.80;91.50
36434;DHT22;31691;51.972;5.672;2022-07-10T23:18:26;24.90;91.40
36434;DHT22;31691;51.972;5.672;2022-07-10T23:23:28;25.00;90.80
36434;DHT22;31691;51.972;5.672;2022-07-10T23:28:30;25.00;91.10
36434;DHT22;31691;51.972;5.672;2022-07-10T23:33:32;25.10;90.90
36434;DHT22;31691;51.972;5.672;2022-07-10T23:38:35;25.10;91.00
36434;DHT22;31691;51.972;5.672;2022-07-10T23:43:37;25.20;90.70
36434;DHT22;31691;51.972;5.672;2022-07-10T23:48:40;25.00;90.80
36434;DHT22;31691;51.972;5.672;2022-07-10T23:54:02;24.90;91.00
36434;DHT22;31691;51.972;5.672;2022-07-10T23:59:04;24.80;91.30
